createdAt,value
2022-09-30T00:00:23.308Z,19.85
2022-09-30T00:01:25.906Z,18.88
2022-09-30T00:02:27.811Z,19.50
2022-09-30T00:03:29.642Z,19.85
2022-09-30T00:04:31.338Z,18.80
2022-09-30T00:05:33.139Z,18.60
2022-09-30T00:06:37.669Z,18.10
2022-09-30T00:07:39.476Z,19.65
2022-09-30T00:08:41.668Z,17.75
2022-09-30T00:09:43.632Z,17.80
2022-09-30T00:10:45.487Z,18.40
2022-09-30T00:11:47.675Z,19.08
2022-09-30T00:12:51.182Z,20.42
2022-09-30T00:13:53.824Z,20.00
2022-09-30T00:14:55.782Z,20.23
2022-09-30T00:15:57.524Z,20.15
2022-09-30T00:16:59.847Z,20.33
2022-09-30T00:18:01.858Z,20.88
2022-09-30T00:19:06.147Z,21.15
2022-09-30T00:20:08.465Z,20.45
2022-09-30T00:21:11.898Z,21.50
2022-09-30T00:22:14.172Z,20.02
2022-09-30T00:23:15.923Z,19.77
2022-09-30T00:24:17.875Z,19.58
2022-09-30T00:25:19.736Z,21.98
2022-09-30T00:26:24.282Z,21.35
2022-09-30T00:27:26.021Z,20.73
2022-09-30T00:28:29.425Z,20.55
2022-09-30T00:29:31.325Z,21.42
2022-09-30T00:30:33.707Z,20.55
2022-09-30T00:31:36.256Z,19.27
2022-09-30T00:32:38.364Z,18.85
2022-09-30T00:33:40.740Z,20.00
2022-09-30T00:34:44.305Z,20.13
2022-09-30T00:35:46.172Z,19.92
2022-09-30T00:36:51.111Z,19.63
2022-09-30T00:37:53.217Z,20.23
2022-09-30T00:38:54.881Z,21.38
2022-09-30T00:39:56.544Z,20.88
2022-09-30T00:40:59.879Z,17.92
2022-09-30T00:42:03.537Z,19.13
2022-09-30T00:43:15.710Z,18.55
2022-09-30T00:44:45.318Z,18.60
2022-09-30T00:45:56.560Z,21.05
2022-09-30T00:48:12.416Z,19.58
2022-09-30T00:49:20.623Z,20.25
2022-09-30T00:50:36.914Z,19.90
2022-09-30T00:51:42.823Z,20.13
2022-09-30T00:52:50.581Z,19.02
2022-09-30T00:53:57.148Z,20.23
2022-09-30T00:55:02.021Z,19.50
2022-09-30T00:56:10.078Z,17.15
2022-09-30T00:57:11.941Z,19.10
2022-09-30T00:58:21.764Z,19.33
2022-09-30T00:59:27.117Z,22.23
2022-09-30T01:00:28.897Z,19.02
2022-09-30T01:01:31.670Z,22.20
2022-09-30T01:02:34.048Z,20.75
2022-09-30T01:03:40.902Z,21.55
2022-09-30T01:04:44.615Z,20.30
2022-09-30T01:05:46.356Z,19.90
2022-09-30T01:06:49.405Z,20.63
2022-09-30T01:07:51.981Z,20.67
2022-09-30T01:08:55.319Z,21.02
2022-09-30T01:09:58.026Z,20.13
2022-09-30T01:11:02.360Z,19.75
2022-09-30T01:12:09.892Z,18.38
2022-09-30T01:13:13.020Z,19.48
2022-09-30T01:14:18.799Z,17.38
2022-09-30T01:15:26.934Z,18.80
2022-09-30T01:16:37.477Z,19.80
2022-09-30T01:18:02.970Z,19.13
2022-09-30T01:19:36.623Z,16.70
2022-09-30T01:20:50.230Z,18.00
2022-09-30T01:22:22.725Z,17.05
2022-09-30T01:23:48.633Z,19.35
2022-09-30T01:25:08.734Z,19.90
2022-09-30T01:26:34.841Z,19.88
2022-09-30T01:28:07.154Z,20.42
2022-09-30T01:29:47.585Z,20.23
2022-09-30T01:30:58.101Z,20.83
2022-09-30T01:33:41.230Z,22.10
2022-09-30T01:34:51.948Z,18.08
2022-09-30T01:36:21.900Z,20.23
2022-09-30T01:37:29.463Z,18.30
2022-09-30T01:38:52.768Z,18.10
2022-09-30T01:40:09.598Z,17.35
2022-09-30T01:41:26.438Z,18.30
2022-09-30T01:42:43.577Z,17.98
2022-09-30T01:44:06.968Z,19.00
2022-09-30T01:45:18.586Z,18.15
2022-09-30T01:46:26.818Z,17.55
2022-09-30T01:47:37.186Z,19.27
2022-09-30T01:48:53.432Z,18.23
2022-09-30T01:50:09.573Z,17.48
2022-09-30T01:51:43.679Z,18.75
2022-09-30T01:52:49.388Z,17.52
2022-09-30T01:53:58.683Z,17.85
2022-09-30T01:55:23.057Z,14.32
2022-09-30T01:56:44.742Z,16.02
2022-09-30T01:58:04.175Z,16.25
2022-09-30T01:59:11.601Z,15.60
2022-09-30T02:00:15.225Z,16.40
2022-09-30T02:01:24.945Z,15.65
2022-09-30T02:02:33.408Z,16.48
2022-09-30T02:03:45.666Z,14.93
2022-09-30T02:05:11.535Z,15.00
2022-09-30T02:06:18.860Z,14.90
2022-09-30T02:07:28.572Z,15.75
2022-09-30T02:08:34.168Z,15.45
2022-09-30T02:10:01.642Z,15.18
2022-09-30T02:11:15.849Z,15.05
2022-09-30T02:12:22.343Z,15.10
2022-09-30T02:13:38.912Z,15.02
2022-09-30T02:14:45.469Z,15.43
2022-09-30T02:15:54.339Z,16.23
2022-09-30T02:17:03.940Z,15.32
2022-09-30T02:18:20.132Z,16.40
2022-09-30T02:19:37.088Z,15.88
2022-09-30T02:20:42.762Z,17.92
2022-09-30T02:21:50.731Z,19.30
2022-09-30T02:23:00.441Z,18.75
2022-09-30T02:24:08.093Z,18.45
2022-09-30T02:25:20.368Z,19.48
2022-09-30T02:26:31.464Z,19.50
2022-09-30T02:27:41.702Z,18.30
2022-09-30T02:28:49.287Z,20.88
2022-09-30T02:29:56.664Z,18.88
2022-09-30T02:31:01.660Z,21.60
2022-09-30T02:32:09.924Z,20.20
2022-09-30T02:33:24.246Z,18.75
2022-09-30T02:34:40.181Z,19.15
2022-09-30T02:35:52.812Z,20.60
2022-09-30T02:37:27.404Z,20.80
2022-09-30T02:38:37.700Z,21.15
2022-09-30T02:39:46.236Z,20.85
2022-09-30T02:40:50.904Z,21.30
2022-09-30T02:41:59.518Z,23.40
2022-09-30T02:43:03.323Z,25.15
2022-09-30T02:44:06.062Z,26.08
2022-09-30T02:45:11.669Z,30.42
2022-09-30T02:46:44.737Z,30.30
2022-09-30T02:48:05.243Z,27.63
2022-09-30T02:49:31.805Z,26.90
2022-09-30T02:50:36.363Z,27.45
2022-09-30T02:52:04.508Z,27.70
2022-09-30T02:53:17.269Z,28.15
2022-09-30T02:55:02.128Z,36.03
2022-09-30T02:56:24.956Z,32.75
2022-09-30T02:57:58.032Z,30.15
2022-09-30T02:58:59.752Z,30.55
2022-09-30T03:00:03.402Z,30.67
2022-09-30T03:01:09.418Z,32.33
2022-09-30T03:02:11.239Z,31.98
2022-09-30T03:03:32.617Z,32.33
2022-09-30T03:04:37.176Z,33.80
2022-09-30T03:05:39.148Z,33.47
2022-09-30T03:06:43.869Z,29.88
2022-09-30T03:07:45.895Z,36.38
2022-09-30T03:08:51.011Z,37.90
2022-09-30T03:09:59.156Z,33.50
2022-09-30T03:11:01.163Z,31.83
2022-09-30T03:12:51.702Z,34.90
2022-09-30T03:14:19.467Z,33.67
2022-09-30T03:15:53.094Z,34.08
2022-09-30T03:17:17.556Z,36.47
2022-09-30T03:18:50.335Z,44.13
2022-09-30T03:20:10.312Z,33.42
2022-09-30T03:21:35.691Z,27.00
2022-09-30T03:23:10.409Z,22.10
2022-09-30T03:24:17.866Z,19.80
2022-09-30T03:25:35.627Z,23.05
2022-09-30T03:27:09.462Z,19.85
2022-09-30T03:28:14.677Z,21.75
2022-09-30T03:29:50.970Z,22.58
2022-09-30T03:31:25.173Z,20.50
2022-09-30T03:32:38.491Z,18.75
2022-09-30T03:34:10.601Z,20.98
2022-09-30T03:35:43.560Z,19.00
2022-09-30T03:37:04.285Z,16.70
2022-09-30T03:38:34.317Z,19.55
2022-09-30T03:40:01.351Z,18.33
2022-09-30T03:41:39.641Z,19.02
2022-09-30T03:42:48.562Z,18.55
2022-09-30T03:44:01.447Z,17.40
2022-09-30T03:45:42.193Z,18.08
2022-09-30T03:47:08.149Z,15.45
2022-09-30T03:48:13.184Z,15.93
2022-09-30T03:49:41.976Z,16.00
2022-09-30T03:50:47.386Z,16.67
2022-09-30T03:51:51.192Z,15.38
2022-09-30T03:52:53.710Z,15.82
2022-09-30T03:53:58.915Z,14.95
2022-09-30T03:55:06.546Z,13.25
2022-09-30T03:56:09.098Z,14.95
2022-09-30T03:57:12.293Z,14.38
2022-09-30T03:58:19.755Z,14.07
2022-09-30T03:59:28.815Z,14.98
2022-09-30T04:00:33.135Z,13.07
2022-09-30T04:01:36.182Z,13.45
2022-09-30T04:02:39.417Z,12.85
2022-09-30T04:03:44.302Z,13.60
2022-09-30T04:04:46.537Z,11.85
2022-09-30T04:05:51.248Z,11.93
2022-09-30T04:07:08.735Z,12.38
2022-09-30T04:08:11.708Z,12.10
2022-09-30T04:09:15.581Z,12.70
2022-09-30T04:10:23.443Z,11.75
2022-09-30T04:11:26.810Z,12.50
2022-09-30T04:12:31.607Z,12.82
2022-09-30T04:13:34.454Z,12.77
2022-09-30T04:14:38.061Z,13.15
2022-09-30T04:15:41.222Z,13.18
2022-09-30T04:16:43.284Z,13.77
2022-09-30T04:17:46.502Z,14.65
2022-09-30T04:18:49.003Z,13.95
2022-09-30T04:19:51.062Z,14.05
2022-09-30T04:20:53.341Z,14.05
2022-09-30T04:21:57.250Z,14.95
2022-09-30T04:23:02.797Z,14.68
2022-09-30T04:24:05.664Z,13.52
2022-09-30T04:25:08.504Z,13.02
2022-09-30T04:26:15.987Z,13.32
2022-09-30T04:27:19.097Z,12.85
2022-09-30T04:28:25.053Z,13.43
2022-09-30T04:29:28.184Z,14.35
2022-09-30T04:30:35.166Z,13.07
2022-09-30T04:31:37.301Z,14.27
2022-09-30T04:32:45.866Z,14.93
2022-09-30T04:33:49.438Z,14.13
2022-09-30T04:34:51.547Z,14.00
2022-09-30T04:35:57.670Z,13.82
2022-09-30T04:36:59.811Z,14.23
2022-09-30T04:38:06.984Z,12.90
2022-09-30T04:39:09.047Z,12.38
2022-09-30T04:40:12.540Z,12.57
2022-09-30T04:41:17.436Z,12.85
2022-09-30T04:42:19.164Z,12.60
2022-09-30T04:43:23.826Z,10.95
2022-09-30T04:44:27.276Z,12.30
2022-09-30T04:45:30.488Z,11.82
2022-09-30T04:46:52.861Z,13.05
2022-09-30T04:47:54.835Z,12.00
2022-09-30T04:48:58.008Z,11.80
2022-09-30T04:50:09.197Z,12.25
2022-09-30T04:51:20.885Z,11.52
2022-09-30T04:52:33.202Z,11.38
2022-09-30T04:55:29.182Z,9.98
2022-09-30T04:56:32.738Z,10.50
2022-09-30T04:59:39.805Z,9.93
2022-09-30T05:00:45.255Z,9.93
2022-09-30T05:01:47.287Z,11.15
2022-09-30T05:02:51.235Z,10.55
2022-09-30T05:04:00.197Z,9.73
2022-09-30T05:05:03.373Z,12.30
2022-09-30T05:06:06.376Z,11.63
2022-09-30T05:07:09.135Z,11.73
2022-09-30T05:08:11.191Z,11.50
2022-09-30T05:09:14.594Z,11.25
2022-09-30T05:10:16.777Z,11.88
2022-09-30T05:11:21.076Z,10.88
2022-09-30T05:12:24.216Z,11.48
2022-09-30T05:13:30.972Z,11.32
2022-09-30T05:14:33.546Z,11.02
2022-09-30T05:15:35.692Z,11.10
2022-09-30T05:16:39.499Z,11.70
2022-09-30T05:17:44.181Z,11.75
2022-09-30T05:18:47.218Z,12.15
2022-09-30T05:19:50.317Z,11.90
2022-09-30T05:20:57.521Z,12.90
2022-09-30T05:21:59.372Z,12.38
2022-09-30T05:23:01.579Z,12.15
2022-09-30T05:24:03.616Z,12.30
2022-09-30T05:25:08.401Z,12.10
2022-09-30T05:26:15.458Z,11.75
2022-09-30T05:27:18.208Z,11.65
2022-09-30T05:28:20.787Z,12.43
2022-09-30T05:29:22.741Z,11.95
2022-09-30T05:30:24.668Z,11.98
2022-09-30T05:31:27.476Z,12.75
2022-09-30T05:32:30.611Z,11.98
2022-09-30T05:33:33.451Z,13.20
2022-09-30T05:34:38.292Z,12.90
2022-09-30T05:35:41.987Z,12.98
2022-09-30T05:36:46.666Z,13.20
2022-09-30T05:37:48.927Z,13.23
2022-09-30T05:38:54.700Z,12.98
2022-09-30T05:39:57.384Z,13.07
2022-09-30T05:41:06.657Z,12.80
2022-09-30T05:42:13.245Z,13.68
2022-09-30T05:43:15.940Z,12.35
2022-09-30T05:44:18.079Z,12.68
2022-09-30T05:45:19.876Z,14.10
2022-09-30T05:46:21.787Z,12.57
2022-09-30T05:47:24.527Z,12.35
2022-09-30T05:48:26.317Z,13.00
2022-09-30T05:49:28.304Z,12.20
2022-09-30T05:50:30.049Z,12.48
2022-09-30T05:51:32.674Z,11.65
2022-09-30T05:52:34.552Z,12.63
2022-09-30T05:53:42.322Z,12.32
2022-09-30T05:54:44.242Z,11.77
2022-09-30T05:55:48.058Z,12.57
2022-09-30T05:56:49.972Z,12.82
2022-09-30T05:57:52.755Z,12.90
2022-09-30T05:58:55.331Z,13.43
2022-09-30T05:59:59.899Z,12.75
2022-09-30T06:01:13.248Z,12.30
2022-09-30T06:02:16.035Z,12.60
2022-09-30T06:03:18.960Z,11.90
2022-09-30T06:04:22.497Z,11.73
2022-09-30T06:05:26.359Z,11.93
2022-09-30T06:06:28.298Z,12.32
2022-09-30T06:07:30.344Z,12.60
2022-09-30T06:08:33.128Z,12.25
2022-09-30T06:09:35.316Z,11.38
2022-09-30T06:10:40.261Z,11.85
2022-09-30T06:11:43.365Z,11.93
2022-09-30T06:12:45.084Z,11.88
2022-09-30T06:13:48.811Z,11.38
2022-09-30T06:14:50.546Z,11.45
2022-09-30T06:16:00.375Z,12.07
2022-09-30T06:17:02.227Z,12.43
2022-09-30T06:18:04.207Z,12.80
2022-09-30T06:19:06.794Z,11.80
2022-09-30T06:20:10.448Z,10.98
2022-09-30T06:21:15.401Z,12.75
2022-09-30T06:22:18.199Z,12.93
2022-09-30T06:23:20.787Z,11.98
2022-09-30T06:24:23.052Z,11.18
2022-09-30T06:25:24.862Z,11.80
2022-09-30T06:26:26.916Z,11.57
2022-09-30T06:27:28.752Z,11.77
2022-09-30T06:28:30.680Z,12.40
2022-09-30T06:29:34.980Z,11.65
2022-09-30T06:30:36.766Z,12.30
2022-09-30T06:31:38.823Z,12.38
2022-09-30T06:32:40.880Z,12.65
2022-09-30T06:33:43.190Z,12.93
2022-09-30T06:34:44.919Z,12.70
2022-09-30T06:35:47.590Z,12.23
2022-09-30T06:36:49.249Z,11.70
2022-09-30T06:37:52.135Z,11.52
2022-09-30T06:38:54.363Z,11.43
2022-09-30T06:39:56.612Z,11.50
2022-09-30T06:41:02.490Z,11.52
2022-09-30T06:42:04.819Z,11.65
2022-09-30T06:43:07.653Z,11.55
2022-09-30T06:44:10.076Z,12.50
2022-09-30T06:45:22.658Z,12.45
2022-09-30T06:46:30.500Z,12.13
2022-09-30T06:47:33.545Z,11.60
2022-09-30T06:48:38.590Z,12.00
2022-09-30T06:49:49.196Z,11.75
2022-09-30T06:51:01.332Z,11.90
2022-09-30T06:52:04.023Z,12.55
2022-09-30T06:53:08.590Z,12.75
2022-09-30T06:54:11.020Z,12.70
2022-09-30T06:55:12.933Z,12.15
2022-09-30T06:56:17.987Z,12.18
2022-09-30T06:57:22.711Z,11.57
2022-09-30T06:58:24.915Z,11.98
2022-09-30T06:59:26.754Z,12.02
2022-09-30T07:00:29.042Z,11.57
2022-09-30T07:01:30.896Z,11.32
2022-09-30T07:02:34.534Z,11.57
2022-09-30T07:03:36.509Z,12.00
2022-09-30T07:04:38.439Z,11.63
2022-09-30T07:05:40.204Z,11.60
2022-09-30T07:06:42.191Z,11.65
2022-09-30T07:07:44.069Z,11.68
2022-09-30T07:08:46.148Z,12.88
2022-09-30T07:09:48.043Z,12.05
2022-09-30T07:10:49.939Z,10.63
2022-09-30T07:11:51.668Z,11.35
2022-09-30T07:12:53.764Z,11.68
2022-09-30T07:13:56.055Z,11.50
2022-09-30T07:15:00.192Z,11.35
2022-09-30T07:16:02.120Z,11.75
2022-09-30T07:17:05.576Z,11.50
2022-09-30T07:18:08.013Z,11.05
2022-09-30T07:19:11.734Z,11.77
2022-09-30T07:20:14.958Z,11.10
2022-09-30T07:21:18.148Z,11.75
2022-09-30T07:22:34.381Z,11.68
2022-09-30T07:23:36.193Z,11.35
2022-09-30T07:24:38.106Z,11.68
2022-09-30T07:25:39.924Z,11.02
2022-09-30T07:26:41.894Z,11.13
2022-09-30T07:27:44.649Z,11.48
2022-09-30T07:28:47.133Z,9.88
2022-09-30T07:30:09.512Z,10.50
2022-09-30T07:32:38.258Z,11.73
2022-09-30T07:33:41.245Z,12.85
2022-09-30T07:34:44.368Z,13.10
2022-09-30T07:35:53.781Z,12.55
2022-09-30T07:36:55.484Z,10.90
2022-09-30T07:37:57.424Z,11.38
2022-09-30T07:38:59.756Z,11.70
2022-09-30T07:40:06.058Z,11.77
2022-09-30T07:41:12.852Z,10.75
2022-09-30T07:42:21.619Z,12.25
2022-09-30T07:43:34.720Z,11.50
2022-09-30T07:44:41.863Z,11.43
2022-09-30T07:45:43.555Z,11.88
2022-09-30T07:46:45.321Z,11.20
2022-09-30T07:47:52.552Z,12.32
2022-09-30T07:48:57.891Z,11.23
2022-09-30T07:50:00.578Z,12.43
2022-09-30T07:51:02.700Z,11.30
2022-09-30T07:52:04.763Z,10.02
2022-09-30T07:53:07.952Z,9.75
2022-09-30T07:54:16.304Z,10.75
2022-09-30T07:55:18.002Z,11.10
2022-09-30T07:56:21.044Z,9.48
2022-09-30T07:57:23.011Z,10.63
2022-09-30T07:58:24.709Z,9.85
2022-09-30T07:59:27.709Z,10.40
2022-09-30T08:00:42.196Z,10.48
2022-09-30T08:01:46.041Z,10.55
2022-09-30T08:02:47.744Z,11.13
2022-09-30T08:03:53.707Z,11.60
2022-09-30T08:04:55.409Z,11.15
2022-09-30T08:05:57.077Z,10.73
2022-09-30T08:07:00.943Z,10.55
2022-09-30T08:08:02.847Z,10.88
2022-09-30T08:09:06.515Z,10.20
2022-09-30T08:10:09.117Z,10.63
2022-09-30T08:11:12.221Z,10.23
2022-09-30T08:12:14.278Z,10.18
2022-09-30T08:13:16.863Z,10.48
2022-09-30T08:14:21.470Z,10.90
2022-09-30T08:15:23.393Z,9.80
2022-09-30T08:16:26.477Z,9.90
2022-09-30T08:17:28.259Z,9.57
2022-09-30T08:18:30.349Z,9.82
2022-09-30T08:19:34.286Z,10.57
2022-09-30T08:20:36.080Z,10.00
2022-09-30T08:21:37.767Z,10.82
2022-09-30T08:22:39.461Z,10.52
2022-09-30T08:23:41.582Z,9.10
2022-09-30T08:24:43.306Z,7.32
2022-09-30T08:25:45.201Z,8.30
2022-09-30T08:26:47.306Z,8.52
2022-09-30T08:27:50.059Z,8.50
2022-09-30T08:28:51.975Z,9.50
2022-09-30T08:29:58.415Z,9.20
2022-09-30T08:31:09.815Z,8.80
2022-09-30T08:32:11.685Z,8.30
2022-09-30T08:33:14.232Z,9.38
2022-09-30T08:34:16.985Z,9.77
2022-09-30T08:35:24.459Z,9.75
2022-09-30T08:36:29.202Z,8.68
2022-09-30T08:37:34.670Z,9.20
2022-09-30T08:38:42.768Z,10.00
2022-09-30T08:39:48.406Z,9.95
2022-09-30T08:41:16.717Z,9.55
2022-09-30T08:42:39.453Z,8.07
2022-09-30T08:44:01.167Z,8.38
2022-09-30T08:45:25.802Z,7.85
2022-09-30T08:47:04.954Z,6.30
2022-09-30T08:48:38.665Z,6.80
2022-09-30T08:50:21.300Z,5.97
2022-09-30T08:51:47.613Z,6.30
2022-09-30T08:52:53.507Z,6.50
2022-09-30T08:54:02.754Z,7.38
2022-09-30T08:55:08.859Z,7.30
2022-09-30T08:56:21.438Z,7.07
2022-09-30T08:57:37.072Z,6.97
2022-09-30T08:58:43.838Z,6.20
2022-09-30T08:59:58.974Z,6.07
2022-09-30T09:01:22.683Z,6.65
2022-09-30T09:02:27.958Z,6.28
2022-09-30T09:03:33.567Z,6.15
2022-09-30T09:04:45.783Z,6.03
2022-09-30T09:06:25.698Z,6.13
2022-09-30T09:08:00.911Z,5.38
2022-09-30T09:09:32.873Z,5.75
2022-09-30T09:11:07.518Z,5.05
2022-09-30T09:12:12.284Z,4.65
2022-09-30T09:13:33.542Z,5.32
2022-09-30T09:14:59.719Z,4.88
2022-09-30T09:16:34.393Z,4.25
2022-09-30T09:18:24.045Z,4.47
2022-09-30T09:20:01.545Z,3.90
2022-09-30T09:21:07.187Z,3.83
2022-09-30T09:22:12.182Z,3.33
2022-09-30T09:23:17.699Z,3.70
2022-09-30T09:24:38.598Z,3.70
2022-09-30T09:25:48.234Z,4.03
2022-09-30T09:26:53.177Z,2.90
2022-09-30T09:28:06.971Z,3.08
2022-09-30T09:29:14.425Z,3.60
2022-09-30T09:30:23.468Z,3.65
2022-09-30T09:31:26.260Z,3.58
2022-09-30T09:32:29.546Z,2.95
2022-09-30T09:33:36.879Z,3.45
2022-09-30T09:34:40.229Z,5.72
2022-09-30T09:36:13.649Z,3.50
2022-09-30T09:37:52.969Z,4.35
2022-09-30T09:39:20.471Z,3.08
2022-09-30T09:40:41.306Z,2.70
2022-09-30T09:41:49.536Z,2.30
2022-09-30T09:43:17.860Z,2.30
2022-09-30T09:44:48.720Z,2.42
2022-09-30T09:46:16.211Z,2.47
2022-09-30T09:47:19.690Z,3.28
2022-09-30T09:48:21.719Z,3.30
2022-09-30T09:49:24.523Z,2.88
2022-09-30T09:50:58.174Z,2.45
2022-09-30T09:52:07.149Z,1.92
2022-09-30T09:53:36.338Z,2.13
2022-09-30T09:54:45.265Z,1.75
2022-09-30T09:55:49.913Z,1.80
2022-09-30T09:56:53.132Z,2.58
2022-09-30T09:58:11.183Z,1.90
2022-09-30T09:59:16.891Z,1.58
2022-09-30T10:00:39.855Z,2.00
2022-09-30T10:01:54.387Z,2.60
2022-09-30T10:03:06.072Z,2.40
2022-09-30T10:04:16.984Z,1.77
2022-09-30T10:05:31.752Z,2.42
2022-09-30T10:06:52.996Z,1.33
2022-09-30T10:08:21.596Z,1.45
2022-09-30T10:09:34.042Z,1.55
2022-09-30T10:11:15.686Z,1.30
2022-09-30T10:12:27.026Z,1.38
2022-09-30T10:13:44.397Z,1.80
2022-09-30T10:14:56.683Z,1.40
2022-09-30T10:16:00.632Z,1.52
2022-09-30T10:17:04.849Z,1.80
2022-09-30T10:18:15.440Z,1.33
2022-09-30T10:19:33.562Z,1.40
2022-09-30T10:20:37.085Z,1.30
2022-09-30T10:21:38.888Z,0.98
2022-09-30T10:22:41.156Z,1.25
2022-09-30T10:23:44.090Z,1.00
2022-09-30T10:24:46.298Z,1.38
2022-09-30T10:26:13.837Z,1.10
2022-09-30T10:27:30.856Z,1.20
2022-09-30T10:28:51.748Z,1.40
2022-09-30T10:29:53.572Z,1.00
2022-09-30T10:31:09.283Z,1.10
2022-09-30T10:32:13.834Z,1.60
2022-09-30T10:33:26.968Z,1.27
2022-09-30T10:34:33.260Z,1.40
2022-09-30T10:35:35.089Z,1.20
2022-09-30T10:36:41.068Z,2.35
2022-09-30T10:37:55.454Z,2.28
2022-09-30T10:39:08.068Z,1.08
2022-09-30T10:40:17.472Z,1.15
2022-09-30T10:41:29.892Z,1.50
2022-09-30T10:42:34.859Z,1.33
2022-09-30T10:43:52.401Z,1.00
2022-09-30T10:44:58.357Z,1.60
2022-09-30T10:46:24.713Z,1.50
2022-09-30T10:47:27.093Z,1.95
2022-09-30T10:48:33.490Z,1.10
2022-09-30T10:49:43.913Z,1.02
2022-09-30T10:50:53.536Z,0.70
2022-09-30T10:52:00.415Z,0.70
2022-09-30T10:53:12.827Z,0.82
2022-09-30T10:54:43.349Z,0.70
2022-09-30T10:55:50.608Z,7.20
2022-09-30T10:56:54.670Z,0.80
2022-09-30T10:58:11.319Z,0.88
2022-09-30T10:59:29.520Z,0.80
2022-09-30T11:00:43.980Z,0.95
2022-09-30T11:02:12.205Z,1.20
2022-09-30T11:03:19.083Z,0.65
2022-09-30T11:04:25.799Z,1.60
2022-09-30T11:05:34.626Z,0.90
2022-09-30T11:06:46.335Z,1.10
2022-09-30T11:08:03.799Z,1.08
2022-09-30T11:09:33.621Z,1.35
2022-09-30T11:10:44.437Z,1.20
2022-09-30T11:11:53.363Z,1.10
2022-09-30T11:13:07.514Z,0.88
2022-09-30T11:14:20.043Z,1.02
2022-09-30T11:15:24.468Z,0.70
2022-09-30T11:16:54.116Z,1.00
2022-09-30T11:18:18.817Z,0.90
2022-09-30T11:19:46.107Z,0.68
2022-09-30T11:21:12.958Z,0.70
2022-09-30T11:22:34.332Z,0.65
2022-09-30T11:24:48.928Z,1.30
2022-09-30T11:26:10.250Z,0.90
2022-09-30T11:28:52.515Z,1.10
2022-09-30T11:30:39.515Z,0.82
2022-09-30T11:32:04.213Z,1.20
2022-09-30T11:33:45.225Z,0.90
2022-09-30T11:35:23.305Z,1.00
2022-09-30T11:36:25.985Z,1.00
2022-09-30T11:37:35.127Z,1.35
2022-09-30T11:38:56.533Z,1.40
2022-09-30T11:41:41.376Z,1.60
2022-09-30T11:42:56.525Z,0.90
2022-09-30T11:44:11.457Z,0.90
2022-09-30T11:45:32.302Z,1.58
2022-09-30T11:47:03.533Z,0.80
2022-09-30T11:48:33.135Z,0.98
2022-09-30T11:50:07.923Z,0.80
2022-09-30T11:51:25.808Z,0.80
2022-09-30T11:52:53.828Z,0.68
2022-09-30T11:54:19.431Z,1.40
2022-09-30T11:55:37.207Z,1.27
2022-09-30T11:56:59.119Z,1.23
2022-09-30T11:58:28.688Z,0.90
2022-09-30T11:59:50.870Z,1.20
2022-09-30T12:01:05.847Z,1.50
2022-09-30T12:02:27.073Z,1.10
2022-09-30T12:03:43.504Z,0.93
2022-09-30T12:04:47.254Z,1.00
2022-09-30T12:06:01.464Z,1.55
2022-09-30T12:07:09.536Z,0.73
2022-09-30T12:08:20.621Z,0.60
2022-09-30T12:10:34.013Z,0.90
2022-09-30T12:11:44.002Z,0.85
2022-09-30T12:12:49.812Z,1.38
2022-09-30T12:14:06.532Z,1.10
2022-09-30T12:15:36.963Z,1.02
2022-09-30T12:17:12.267Z,1.00
2022-09-30T12:18:21.425Z,0.80
2022-09-30T12:19:45.327Z,0.82
2022-09-30T12:20:56.692Z,1.00
2022-09-30T12:22:06.885Z,0.82
2022-09-30T12:23:37.842Z,0.85
2022-09-30T12:24:42.401Z,0.90
2022-09-30T12:25:50.572Z,0.68
2022-09-30T12:26:53.025Z,1.00
2022-09-30T12:28:27.717Z,0.77
2022-09-30T12:29:59.164Z,1.08
2022-09-30T12:31:22.493Z,0.80
2022-09-30T12:32:38.116Z,0.60
2022-09-30T12:33:43.366Z,0.50
2022-09-30T12:35:22.117Z,0.68
2022-09-30T12:36:40.001Z,0.90
2022-09-30T12:38:00.561Z,0.88
2022-09-30T12:39:48.945Z,0.70
2022-09-30T12:41:19.431Z,0.80
2022-09-30T12:42:42.387Z,0.82
2022-09-30T12:44:11.515Z,0.68
2022-09-30T12:45:20.163Z,1.00
2022-09-30T12:47:09.697Z,1.90
2022-09-30T12:48:21.367Z,0.60
2022-09-30T12:49:40.362Z,0.70
2022-09-30T12:51:47.977Z,0.50
2022-09-30T12:53:44.659Z,0.60
2022-09-30T12:54:59.341Z,0.70
2022-09-30T12:56:15.742Z,0.73
2022-09-30T12:57:25.379Z,0.80
2022-09-30T12:58:53.351Z,0.80
2022-09-30T13:00:03.131Z,0.70
2022-09-30T13:01:07.302Z,1.05
2022-09-30T13:02:27.561Z,0.68
2022-09-30T13:04:21.897Z,0.80
2022-09-30T13:05:45.066Z,0.80
2022-09-30T13:06:58.024Z,1.48
2022-09-30T13:08:05.170Z,0.80
2022-09-30T13:09:22.505Z,1.00
2022-09-30T13:10:33.962Z,0.80
2022-09-30T13:11:55.298Z,0.90
2022-09-30T13:13:24.509Z,0.90
2022-09-30T13:14:36.379Z,0.90
2022-09-30T13:15:41.533Z,0.70
2022-09-30T13:17:08.331Z,1.08
2022-09-30T13:18:24.917Z,0.70
2022-09-30T13:19:41.641Z,1.58
2022-09-30T13:21:03.765Z,0.73
2022-09-30T13:22:20.993Z,0.90
2022-09-30T13:23:58.301Z,0.85
2022-09-30T13:25:03.304Z,1.67
2022-09-30T13:26:33.639Z,1.38
2022-09-30T13:27:42.844Z,0.82
2022-09-30T13:28:44.920Z,0.90
2022-09-30T13:29:48.166Z,0.70
2022-09-30T13:30:50.145Z,0.60
2022-09-30T13:31:52.949Z,0.70
2022-09-30T13:32:58.750Z,13.25
2022-09-30T13:34:04.132Z,3.83
2022-09-30T13:35:33.694Z,0.60
2022-09-30T13:36:41.123Z,0.60
2022-09-30T13:37:42.861Z,0.43
2022-09-30T13:38:44.696Z,1.25
2022-09-30T13:39:51.825Z,4.30
2022-09-30T13:41:06.343Z,13.43
2022-09-30T13:42:20.188Z,3.67
2022-09-30T13:43:27.544Z,0.63
2022-09-30T13:44:57.356Z,0.82
2022-09-30T13:46:09.474Z,0.98
2022-09-30T13:47:29.553Z,0.88
2022-09-30T13:48:36.950Z,0.65
2022-09-30T13:49:45.930Z,2.70
2022-09-30T13:50:51.147Z,28.27
2022-09-30T13:51:55.161Z,1.50
2022-09-30T13:53:01.548Z,0.63
2022-09-30T13:54:21.114Z,7.47
2022-09-30T13:55:29.180Z,5.10
2022-09-30T13:56:35.273Z,24.05
2022-09-30T13:58:03.534Z,36.22
2022-09-30T13:59:45.666Z,8.68
2022-09-30T14:00:47.553Z,6.60
2022-09-30T14:02:22.143Z,2.55
2022-09-30T14:03:33.051Z,3.72
2022-09-30T14:04:37.968Z,1.40
2022-09-30T14:06:07.548Z,1.70
2022-09-30T14:07:37.713Z,1.20
2022-09-30T14:09:12.876Z,0.77
2022-09-30T14:10:51.591Z,0.95
2022-09-30T14:12:14.519Z,0.80
2022-09-30T14:13:16.368Z,0.80
2022-09-30T14:15:03.084Z,0.77
2022-09-30T14:16:49.200Z,0.88
2022-09-30T14:18:31.137Z,0.68
2022-09-30T14:19:51.008Z,0.80
2022-09-30T14:21:13.285Z,0.80
2022-09-30T14:22:31.153Z,0.90
2022-09-30T14:23:34.439Z,0.70
2022-09-30T14:24:40.501Z,0.70
2022-09-30T14:25:59.664Z,0.93
2022-09-30T14:27:32.432Z,0.70
2022-09-30T14:29:03.861Z,0.80
2022-09-30T14:30:12.466Z,1.10
2022-09-30T14:31:17.874Z,1.65
2022-09-30T14:32:47.711Z,1.30
2022-09-30T14:34:00.249Z,1.15
2022-09-30T14:35:10.251Z,0.90
2022-09-30T14:37:34.574Z,1.00
2022-09-30T14:38:37.557Z,1.30
2022-09-30T14:39:45.312Z,1.20
2022-09-30T14:40:53.465Z,1.70
2022-09-30T14:41:59.245Z,1.23
2022-09-30T14:43:05.091Z,1.45
2022-09-30T14:49:34.168Z,1.40
2022-09-30T14:51:00.445Z,1.20
2022-09-30T14:52:06.123Z,1.20
2022-09-30T14:53:26.927Z,1.60
2022-09-30T14:54:38.577Z,1.88
2022-09-30T14:55:49.774Z,1.88
2022-09-30T14:57:02.408Z,1.70
2022-09-30T14:58:22.071Z,2.60
2022-09-30T15:00:14.860Z,2.20
2022-09-30T15:01:54.582Z,1.88
2022-09-30T15:02:57.002Z,2.63
2022-09-30T15:04:01.974Z,2.50
2022-09-30T15:05:05.223Z,3.20
2022-09-30T15:06:46.704Z,5.13
2022-09-30T15:07:49.349Z,2.50
2022-09-30T15:08:59.603Z,2.53
2022-09-30T15:10:02.557Z,2.65
2022-09-30T15:11:06.549Z,1.80
2022-09-30T15:12:23.373Z,2.42
2022-09-30T15:15:42.531Z,2.97
2022-09-30T15:16:49.393Z,2.50
2022-09-30T15:17:55.598Z,2.72
2022-09-30T15:19:03.701Z,2.95
2022-09-30T15:20:29.711Z,4.43
2022-09-30T15:21:38.118Z,5.50
2022-09-30T15:22:43.212Z,5.65
2022-09-30T15:23:55.291Z,5.05
2022-09-30T15:25:04.306Z,5.57
2022-09-30T15:27:56.295Z,3.05
2022-09-30T15:29:02.647Z,2.15
2022-09-30T15:30:24.019Z,1.90
2022-09-30T15:32:35.008Z,1.85
2022-09-30T15:33:36.848Z,1.90
2022-09-30T15:34:39.222Z,1.73
2022-09-30T15:35:40.938Z,1.85
2022-09-30T15:37:04.764Z,1.70
2022-09-30T15:38:16.131Z,1.65
2022-09-30T15:39:25.064Z,1.92
2022-09-30T15:40:45.591Z,1.70
2022-09-30T15:41:47.842Z,1.60
2022-09-30T15:43:01.272Z,1.80
2022-09-30T15:44:04.070Z,1.90
2022-09-30T15:45:34.662Z,2.55
2022-09-30T15:48:02.604Z,2.55
2022-09-30T15:49:29.052Z,2.35
2022-09-30T15:50:43.720Z,2.80
2022-09-30T15:51:46.170Z,2.97
2022-09-30T15:52:51.040Z,3.10
2022-09-30T15:53:53.317Z,2.85
2022-09-30T15:54:55.944Z,2.88
2022-09-30T15:56:16.270Z,3.15
2022-09-30T15:57:40.391Z,2.70